Time;durP1;ratioP1;P1;durP2;ratioP2;P2;SDS_P1;SDS_P2;PMS_P1;PMS_P2;Temp;Humidity;BMP_temperature;BMP_pressure;BME280_temperature;BME280_humidity;BME280_pressure;Samples;Min_cycle;Max_cycle;Signal;HPM_P1;HPM_P2
2023/12/09 00:01:32;;;;;;;;;;;;;;;-0.38;100.00;100517.53;5006052;28;20726;-81
2023/12/09 00:04:05;;;;;;;;;;;;;;;-0.41;100.00;100522.50;5014154;28;19929;-81
2023/12/09 00:06:33;;;;;;;;;;;;;;;-0.38;100.00;100524.75;5000279;28;19925;-81
2023/12/09 00:09:07;;;;;;;;;;;;;;;-0.46;100.00;100516.97;5002266;28;19929;-81
2023/12/09 00:11:40;;;;;;;;;;;;;;;-0.43;100.00;100514.69;5002787;28;19932;-81
2023/12/09 00:14:13;;;;;;;;;;;;;;;-0.38;100.00;100516.72;4998450;28;19929;-81
2023/12/09 00:16:41;;;;;;;;;;;;;;;-0.32;100.00;100507.84;4972536;28;19925;-81
2023/12/09 00:19:09;;;;;;;;;;;;;;;-0.33;100.00;100516.09;5001209;28;19926;-81
2023/12/09 00:21:42;;;;;;;;;;;;;;;-0.38;100.00;100524.75;4999944;28;20005;-81
2023/12/09 00:24:11;;;;;;;;;;;;;;;-0.35;100.00;100516.31;5002784;28;19933;-81
2023/12/09 00:26:44;;;;;;;;;;;;;;;-0.35;100.00;100521.66;4996607;28;19929;-81
2023/12/09 00:29:12;;;;;;;;;;;;;;;-0.38;100.00;100514.06;4996743;28;19925;-81
2023/12/09 00:31:41;;;;;;;;;;;;;;;-0.37;100.00;100513.84;5000847;28;19932;-81
2023/12/09 00:34:14;;;;;;;;;;;;;;;-0.41;100.00;100507.28;4998492;28;19921;-81
2023/12/09 00:36:42;;;;;;;;;;;;;;;-0.36;100.00;100518.16;5003316;28;19937;-81
2023/12/09 00:39:12;;;;;;;;;;;;;;;-0.39;100.00;100515.09;5000557;28;19944;-81
2023/12/09 00:41:45;;;;;;;;;;;;;;;-0.35;100.00;100516.31;5002706;28;19968;-81
2023/12/09 00:44:14;;;;;;;;;;;;;;;-0.34;100.00;100515.28;5003149;28;20362;-81
2023/12/09 00:46:43;;;;;;;;;;;;;;;-0.29;100.00;100520.81;4999821;28;20012;-81
2023/12/09 00:49:16;;;;;;;;;;;;;;;-0.35;100.00;100516.31;5002441;28;19932;-81
2023/12/09 00:51:44;;;;;;;;;;;;;;;-0.35;100.00;100508.28;5003243;28;19925;-81
2023/12/09 00:54:13;;;;;;;;;;;;;;;-0.36;100.00;100507.47;5002648;28;19925;-81
2023/12/09 00:56:41;;;;;;;;;;;;;;;-0.31;100.00;100524.72;5019601;28;20000;-81
2023/12/09 00:59:09;;;;;;;;;;;;;;;-0.37;100.00;100518.38;5003822;28;20278;-81
2023/12/09 01:01:42;;;;;;;;;;;;;;;-0.32;100.00;100515.88;5004010;28;20542;-81
2023/12/09 01:04:15;;;;;;;;;;;;;;;-0.30;100.00;100515.66;5002105;28;19928;-81
2023/12/09 01:06:43;;;;;;;;;;;;;;;-0.31;100.00;100517.53;5007119;28;19941;-82
2023/12/09 01:09:17;;;;;;;;;;;;;;;-0.28;100.00;100524.31;5002505;28;20282;-81
2023/12/09 01:11:50;;;;;;;;;;;;;;;-0.32;100.00;100515.06;5004378;28;20396;-81
2023/12/09 01:14:23;;;;;;;;;;;;;;;-0.38;100.00;100528.25;5000634;28;19925;-81
2023/12/09 01:16:56;;;;;;;;;;;;;;;-0.31;100.00;100519.38;5003641;28;19933;-81
2023/12/09 01:19:24;;;;;;;;;;;;;;;-0.29;100.00;100528.84;5003109;28;19929;-81
2023/12/09 01:21:57;;;;;;;;;;;;;;;-0.26;100.00;100531.09;5002685;28;19929;-81
2023/12/09 01:24:31;;;;;;;;;;;;;;;-0.27;100.00;100529.44;5005937;28;19929;-81
2023/12/09 01:27:05;;;;;;;;;;;;;;;-0.29;100.00;100530.69;5004721;28;20278;-82
2023/12/09 01:29:33;;;;;;;;;;;;;;;-0.31;100.00;100522.88;5004148;28;19932;-81
2023/12/09 01:32:01;;;;;;;;;;;;;;;-0.29;100.00;100519.97;4999895;28;19921;-81
2023/12/09 01:34:29;;;;;;;;;;;;;;;-0.31;100.00;100522.06;5002321;28;19921;-81
2023/12/09 01:36:57;;;;;;;;;;;;;;;-0.30;100.00;100519.16;5018070;28;19932;-81
2023/12/09 01:39:31;;;;;;;;;;;;;;;-0.30;100.00;100505.81;5002514;28;19926;-81
2023/12/09 01:42:04;;;;;;;;;;;;;;;-0.29;100.00;100511.97;5006357;28;19925;-81
2023/12/09 01:44:32;;;;;;;;;;;;;;;-0.29;100.00;100503.94;5000433;28;19921;-81
2023/12/09 01:47:01;;;;;;;;;;;;;;;-0.25;100.00;100521.19;5004535;28;19921;-81
2023/12/09 01:49:29;;;;;;;;;;;;;;;-0.22;100.00;100523.44;5001072;28;19921;-81
2023/12/09 01:51:58;;;;;;;;;;;;;;;-0.18;100.00;100530.84;5005117;28;19925;-81
2023/12/09 01:54:32;;;;;;;;;;;;;;;-0.20;100.00;100524.06;5003533;28;19928;-81
2023/12/09 01:57:00;;;;;;;;;;;;;;;-0.20;100.00;100510.69;5003865;28;20401;-81
2023/12/09 01:59:33;;;;;;;;;;;;;;;-0.19;100.00;100510.47;5006792;28;19925;-81
2023/12/09 02:02:02;;;;;;;;;;;;;;;-0.14;100.00;100503.66;5004436;28;19932;-81
2023/12/09 02:04:35;;;;;;;;;;;;;;;-0.16;100.00;100503.88;5000037;28;19921;-81
2023/12/09 02:07:03;;;;;;;;;;;;;;;-0.16;100.00;100500.41;5002164;28;19929;-81
2023/12/09 02:09:32;;;;;;;;;;;;;;;-0.15;100.00;100496.66;5006353;28;19937;-81
2023/12/09 02:12:05;;;;;;;;;;;;;;;-0.19;100.00;100494.44;5001003;28;19925;-81
2023/12/09 02:14:36;;;;;;;;;;;;;;;-0.12;100.00;100493.59;5002115;28;19925;-81
2023/12/09 02:17:13;;;;;;;;;;;;;;;-0.09;100.00;100490.47;5003722;28;20294;-81
2023/12/09 02:19:46;;;;;;;;;;;;;;;-0.05;100.00;100497.03;5003612;28;19929;-81
2023/12/09 02:22:15;;;;;;;;;;;;;;;-0.06;100.00;100495.41;5001322;28;19941;-81
2023/12/09 02:24:44;;;;;;;;;;;;;;;-0.09;100.00;100493.16;5004640;28;19925;-81
2023/12/09 02:27:21;;;;;;;;;;;;;;;-0.04;100.00;100490.66;5000419;28;19945;-81
2023/12/09 02:29:51;;;;;;;;;;;;;;;-0.06;100.00;100490.84;5001435;28;19929;-81
2023/12/09 02:32:26;;;;;;;;;;;;;;;-0.08;100.00;100490.25;5004296;28;19927;-81
2023/12/09 02:34:54;;;;;;;;;;;;;;;-0.04;100.00;100485.31;5006769;28;19925;-81
2023/12/09 02:37:23;;;;;;;;;;;;;;;-0.03;100.00;100497.63;5000982;28;19922;-81
2023/12/09 02:39:53;;;;;;;;;;;;;;;-0.08;100.00;100498.28;5000637;28;21372;-81
2023/12/09 02:42:21;;;;;;;;;;;;;;;0.00;100.00;100489.22;5005292;28;19938;-82
2023/12/09 02:44:54;;;;;;;;;;;;;;;-0.01;100.00;100493.72;5002438;28;19925;-81
2023/12/09 02:47:27;;;;;;;;;;;;;;;-0.02;100.00;100485.91;5004949;28;19929;-81
2023/12/09 02:50:00;;;;;;;;;;;;;;;-0.03;100.00;100479.75;4996772;28;19925;-81
2023/12/09 02:52:28;;;;;;;;;;;;;;;-0.02;100.00;100470.66;5017696;28;19940;-81
2023/12/09 02:55:02;;;;;;;;;;;;;;;0.04;100.00;100477.00;5004476;28;19947;-81
2023/12/09 02:57:31;;;;;;;;;;;;;;;0.01;100.00;100480.13;5004005;28;19930;-81
2023/12/09 02:59:58;;;;;;;;;;;;;;;0.04;100.00;100482.38;4998706;28;19930;-82
2023/12/09 03:02:26;;;;;;;;;;;;;;;0.05;100.00;100475.97;5015170;28;19930;-81
2023/12/09 03:04:54;;;;;;;;;;;;;;;0.11;100.00;100476.97;5005855;28;20411;-81
2023/12/09 03:07:22;;;;;;;;;;;;;;;0.09;100.00;100471.84;5004088;28;20008;-81
2023/12/09 03:09:55;;;;;;;;;;;;;;;0.07;100.00;100470.41;5000070;28;20386;-81
2023/12/09 03:12:29;;;;;;;;;;;;;;;0.09;100.00;100471.03;5001570;28;20282;-81
2023/12/09 03:15:05;;;;;;;;;;;;;;;0.14;100.00;100464.00;5000113;28;19996;-81
2023/12/09 03:17:33;;;;;;;;;;;;;;;0.12;100.00;100465.25;5000325;28;19936;-81
2023/12/09 03:20:02;;;;;;;;;;;;;;;0.14;100.00;100466.66;5004055;28;19925;-81
2023/12/09 03:22:30;;;;;;;;;;;;;;;0.16;100.00;100463.78;5004321;28;19925;-80
2023/12/09 03:24:58;;;;;;;;;;;;;;;0.14;100.00;100450.63;5000089;28;19926;-81
2023/12/09 03:27:26;;;;;;;;;;;;;;;0.19;100.00;100454.50;5000401;28;19921;-81
2023/12/09 03:30:01;;;;;;;;;;;;;;;0.15;100.00;100449.59;5005812;28;19929;-81
2023/12/09 03:32:34;;;;;;;;;;;;;;;0.16;100.00;100451.19;4999978;28;19936;-81
2023/12/09 03:35:09;;;;;;;;;;;;;;;0.16;100.00;100451.19;4999312;28;19921;-80
2023/12/09 03:37:42;;;;;;;;;;;;;;;0.20;100.00;100459.63;4998095;28;19933;-82
2023/12/09 03:40:15;;;;;;;;;;;;;;;0.16;100.00;100443.19;4999777;28;20897;-81
2023/12/09 03:42:48;;;;;;;;;;;;;;;0.16;100.00;100439.69;5014012;28;19933;-81
2023/12/09 03:45:23;;;;;;;;;;;;;;;0.14;100.00;100442.59;4999537;28;19996;-81
2023/12/09 03:47:51;;;;;;;;;;;;;;;0.22;100.00;100456.72;5000015;28;20282;-81
2023/12/09 03:50:19;;;;;;;;;;;;;;;0.20;100.00;100445.44;5004983;28;19932;-81
2023/12/09 03:52:52;;;;;;;;;;;;;;;0.28;100.00;100455.88;5001732;28;19925;-81
2023/12/09 03:55:20;;;;;;;;;;;;;;;0.27;100.00;100446.22;5016482;28;19944;-81
2023/12/09 03:57:53;;;;;;;;;;;;;;;0.28;100.00;100451.34;5011395;28;19922;-81
2023/12/09 04:00:27;;;;;;;;;;;;;;;0.29;100.00;100444.97;4999527;28;19925;-81
2023/12/09 04:03:00;;;;;;;;;;;;;;;0.27;100.00;100439.00;5000370;28;20540;-81
2023/12/09 04:05:28;;;;;;;;;;;;;;;0.28;100.00;100443.31;5005114;28;19921;-81
2023/12/09 04:08:01;;;;;;;;;;;;;;;0.26;100.00;100442.72;4999730;28;19929;-81
2023/12/09 04:10:34;;;;;;;;;;;;;;;0.35;100.00;100445.94;5003211;28;19931;-81
2023/12/09 04:13:07;;;;;;;;;;;;;;;0.30;100.00;100443.94;5001367;28;19925;-81
2023/12/09 04:15:41;;;;;;;;;;;;;;;0.36;100.00;100439.56;5004930;28;19925;-81
2023/12/09 04:18:14;;;;;;;;;;;;;;;0.38;100.00;100433.97;4999961;28;19926;-81
2023/12/09 04:20:42;;;;;;;;;;;;;;;0.36;100.00;100439.56;5014461;28;20012;-81
2023/12/09 04:23:10;;;;;;;;;;;;;;;0.41;100.00;100437.03;5003424;28;19929;-81
2023/12/09 04:25:44;;;;;;;;;;;;;;;0.40;100.00;100430.06;5003439;28;20409;-81
2023/12/09 04:28:17;;;;;;;;;;;;;;;0.45;100.00;100430.19;5014297;28;19933;-81
2023/12/09 04:30:51;;;;;;;;;;;;;;;0.46;100.00;100423.00;4998797;28;19925;-81
2023/12/09 04:33:19;;;;;;;;;;;;;;;0.46;100.00;100420.31;5003467;28;19932;-81
2023/12/09 04:35:47;;;;;;;;;;;;;;;0.45;100.00;100418.69;5003710;28;19933;-80
2023/12/09 04:38:20;;;;;;;;;;;;;;;0.52;100.00;100418.63;5014391;28;19933;-81
2023/12/09 04:40:48;;;;;;;;;;;;;;;0.51;100.00;100423.13;5014150;28;20616;-81
2023/12/09 04:43:16;;;;;;;;;;;;;;;0.48;100.00;100416.38;5000808;28;19929;-81
2023/12/09 04:45:44;;;;;;;;;;;;;;;0.51;100.00;100423.13;5003014;28;19931;-81
2023/12/09 04:48:13;;;;;;;;;;;;;;;0.52;100.00;100418.63;4998471;28;20389;-81
2023/12/09 04:50:41;;;;;;;;;;;;;;;0.56;100.00;100415.28;5001517;28;19929;-81
2023/12/09 04:53:14;;;;;;;;;;;;;;;0.55;100.00;100394.06;5000988;28;19933;-81
2023/12/09 04:55:47;;;;;;;;;;;;;;;0.54;100.00;100397.78;5003088;28;19932;-81
2023/12/09 04:58:15;;;;;;;;;;;;;;;0.56;100.00;100399.22;5015293;28;19932;-81
2023/12/09 05:00:48;;;;;;;;;;;;;;;0.55;100.00;100399.44;5000831;28;20402;-81
2023/12/09 05:03:22;;;;;;;;;;;;;;;0.61;100.00;100398.56;5002059;28;19932;-81
2023/12/09 05:05:55;;;;;;;;;;;;;;;0.60;100.00;100408.44;5002961;28;19925;-81
2023/12/09 05:08:23;;;;;;;;;;;;;;;0.62;100.00;100400.19;4999803;28;21839;-81
2023/12/09 05:10:56;;;;;;;;;;;;;;;0.62;100.00;100393.00;5000085;28;19926;-81
2023/12/09 05:13:29;;;;;;;;;;;;;;;0.63;100.00;100397.28;5000556;28;19929;-81
2023/12/09 05:16:02;;;;;;;;;;;;;;;0.63;100.00;100393.78;4998617;28;19930;-81
2023/12/09 05:18:33;;;;;;;;;;;;;;;0.65;100.00;100408.59;5002640;28;20397;-81
2023/12/09 05:21:06;;;;;;;;;;;;;;;0.63;100.00;100407.19;5000277;28;19921;-81
2023/12/09 05:23:39;;;;;;;;;;;;;;;0.68;100.00;100410.84;4997057;28;19925;-81
2023/12/09 05:26:21;;;;;;;;;;;;;;;0.67;100.00;100408.38;5002951;28;19933;-81
2023/12/09 05:28:49;;;;;;;;;;;;;;;0.71;100.00;100403.41;4998643;28;20001;-81
2023/12/09 05:31:17;;;;;;;;;;;;;;;0.65;100.00;100403.25;4998749;28;19925;-81
2023/12/09 05:33:47;;;;;;;;;;;;;;;0.69;100.00;100400.94;5001946;28;19929;-81
2023/12/09 05:36:20;;;;;;;;;;;;;;;0.73;100.00;100401.31;4998789;28;19926;-81
2023/12/09 05:38:53;;;;;;;;;;;;;;;0.75;100.00;100392.03;5001315;28;19925;-81
2023/12/09 05:41:21;;;;;;;;;;;;;;;0.75;100.00;100400.06;4998577;28;19929;-81
2023/12/09 05:43:54;;;;;;;;;;;;;;;0.78;100.00;100402.28;5005351;28;19929;-81
2023/12/09 05:46:27;;;;;;;;;;;;;;;0.79;100.00;100395.91;5005279;28;19922;-81
2023/12/09 05:49:02;;;;;;;;;;;;;;;0.77;100.00;100397.97;5007834;28;19934;-81
2023/12/09 05:51:35;;;;;;;;;;;;;;;0.79;100.00;100393.22;5000146;28;19921;-81
2023/12/09 05:54:08;;;;;;;;;;;;;;;0.77;100.00;100389.13;5004154;28;19952;-81
2023/12/09 05:56:47;;;;;;;;;;;;;;;0.79;100.00;100387.88;5005850;28;19925;-81
2023/12/09 05:59:15;;;;;;;;;;;;;;;0.77;100.00;100389.94;5002415;28;19925;-81
2023/12/09 06:01:48;;;;;;;;;;;;;;;0.81;100.00;100391.13;5002674;28;20309;-81
2023/12/09 06:04:17;;;;;;;;;;;;;;;0.89;100.00;100394.56;5006418;28;19932;-81
2023/12/09 06:06:50;;;;;;;;;;;;;;;0.89;100.00;100391.91;5004154;28;19925;-81
2023/12/09 06:09:23;;;;;;;;;;;;;;;0.85;100.00;100386.97;5004253;28;19929;-81
2023/12/09 06:11:51;;;;;;;;;;;;;;;0.85;100.00;100389.63;5002103;28;19926;-81
2023/12/09 06:14:24;;;;;;;;;;;;;;;0.91;100.00;100396.00;5018379;28;19930;-81
2023/12/09 06:16:52;;;;;;;;;;;;;;;0.93;100.00;100388.53;5003387;28;19926;-82
2023/12/09 06:19:21;;;;;;;;;;;;;;;0.84;100.00;100392.53;5003481;28;20011;-81
2023/12/09 06:21:55;;;;;;;;;;;;;;;0.86;100.00;100387.78;5001523;28;19925;-81
2023/12/09 06:24:23;;;;;;;;;;;;;;;0.86;100.00;100393.16;5002758;28;20381;-81
2023/12/09 06:26:56;;;;;;;;;;;;;;;0.90;100.00;100390.84;5003133;28;19933;-81
2023/12/09 06:29:24;;;;;;;;;;;;;;;0.90;100.00;100394.34;5006004;28;23185;-81
2023/12/09 06:31:51;;;;;;;;;;;;;;;0.91;100.00;100389.78;5002005;28;19936;-82
2023/12/09 06:34:26;;;;;;;;;;;;;;;0.91;100.00;100393.31;5002298;28;19941;-81
2023/12/09 06:36:59;;;;;;;;;;;;;;;0.93;100.00;100385.84;5002674;28;19929;-81
2023/12/09 06:39:32;;;;;;;;;;;;;;;0.96;100.00;100387.28;5001637;28;20643;-81
2023/12/09 06:42:01;;;;;;;;;;;;;;;0.95;100.00;100383.78;4999622;28;19925;-81
2023/12/09 06:44:34;;;;;;;;;;;;;;;0.99;100.00;100390.31;5007298;28;19929;-81
2023/12/09 06:47:02;;;;;;;;;;;;;;;1.00;100.00;100380.44;5005791;28;19929;-81
2023/12/09 06:49:31;;;;;;;;;;;;;;;1.00;100.00;100380.44;5001108;28;19925;-81
2023/12/09 06:51:59;;;;;;;;;;;;;;;0.96;100.00;100389.97;5005102;28;19920;-82
2023/12/09 06:54:28;;;;;;;;;;;;;;;0.96;100.00;100381.91;4998209;28;20571;-81
2023/12/09 06:56:56;;;;;;;;;;;;;;;0.95;100.00;100382.94;5014368;28;19932;-82
2023/12/09 06:59:29;;;;;;;;;;;;;;;0.96;100.00;100376.56;5002489;28;19928;-82
2023/12/09 07:02:02;;;;;;;;;;;;;;;1.00;100.00;100380.44;5002880;28;20243;-82
2023/12/09 07:04:33;;;;;;;;;;;;;;;0.99;100.00;100382.28;5018009;28;19929;-81
2023/12/09 07:07:01;;;;;;;;;;;;;;;1.05;100.00;100377.06;5002330;28;19925;-81
2023/12/09 07:09:29;;;;;;;;;;;;;;;1.06;100.00;100376.84;5005243;28;20286;-81
2023/12/09 07:12:03;;;;;;;;;;;;;;;1.08;100.00;100372.09;5006213;28;19928;-81
2023/12/09 07:14:36;;;;;;;;;;;;;;;1.12;100.00;100365.25;5003270;28;19936;-81
2023/12/09 07:17:08;;;;;;;;;;;;;;;1.14;100.00;100365.00;5002492;28;19925;-82
2023/12/09 07:19:38;;;;;;;;;;;;;;;1.10;100.00;100355.78;5001682;28;19925;-81
2023/12/09 07:22:06;;;;;;;;;;;;;;;1.15;100.00;100362.09;5003991;28;19929;-82
2023/12/09 07:24:34;;;;;;;;;;;;;;;1.12;100.00;100364.41;5002302;28;19932;-82
2023/12/09 07:27:02;;;;;;;;;;;;;;;1.22;100.00;100364.72;5002285;28;19925;-81
2023/12/09 07:29:30;;;;;;;;;;;;;;;1.23;100.00;100369.03;5004169;28;19921;-81
2023/12/09 07:31:57;;;;;;;;;;;;;;;1.21;100.00;100362.25;5001872;28;20397;-82
2023/12/09 07:34:30;;;;;;;;;;;;;;;1.21;100.00;100372.97;5003101;28;20735;-82
2023/12/09 07:37:00;;;;;;;;;;;;;;;1.26;100.00;100368.56;5003469;28;19929;-81
2023/12/09 07:39:28;;;;;;;;;;;;;;;1.23;100.00;100362.84;5001244;28;20728;-82
2023/12/09 07:41:56;;;;;;;;;;;;;;;1.22;100.00;100364.72;5002314;28;19930;-81
2023/12/09 07:44:28;;;;;;;;;;;;;;;1.28;100.00;100355.75;4999789;28;19932;-82
2023/12/09 07:47:01;;;;;;;;;;;;;;;1.25;100.00;100353.53;5004984;28;19925;-81
2023/12/09 07:49:34;;;;;;;;;;;;;;;1.21;100.00;100362.25;5005524;28;19932;-81
2023/12/09 07:52:04;;;;;;;;;;;;;;;1.27;100.00;100355.97;5004011;28;19925;-82
2023/12/09 07:54:32;;;;;;;;;;;;;;;1.26;100.00;100354.34;5001718;28;19925;-82
2023/12/09 07:57:00;;;;;;;;;;;;;;;1.27;100.00;100355.97;5014225;28;19933;-81
2023/12/09 07:59:33;;;;;;;;;;;;;;;1.30;100.00;100355.53;5015795;28;20282;-81
2023/12/09 08:02:01;;;;;;;;;;;;;;;1.35;100.00;100359.19;5001021;28;19941;-82
2023/12/09 08:04:29;;;;;;;;;;;;;;;1.35;100.00;100355.66;5001719;28;20388;-81
2023/12/09 08:06:57;;;;;;;;;;;;;;;1.37;100.00;100361.63;4998889;28;19929;-81
2023/12/09 08:09:31;;;;;;;;;;;;;;;1.40;100.00;100349.63;5005250;28;19932;-82
2023/12/09 08:12:04;;;;;;;;;;;;;;;1.42;100.00;100353.69;5004625;28;20263;-82
2023/12/09 08:14:37;;;;;;;;;;;;;;;1.38;100.00;100357.88;5002536;28;20390;-81
2023/12/09 08:17:05;;;;;;;;;;;;;;;1.37;100.00;100353.59;5006032;28;19921;-82
2023/12/09 08:19:33;;;;;;;;;;;;;;;1.47;100.00;100347.69;5002191;28;21311;-82
2023/12/09 08:22:02;;;;;;;;;;;;;;;1.50;100.00;100350.69;5018922;28;20329;-82
2023/12/09 08:24:31;;;;;;;;;;;;;;;1.42;100.00;100347.53;5016267;28;20306;-82
2023/12/09 08:26:59;;;;;;;;;;;;;;;1.49;100.00;100353.63;5003740;28;19930;-81
2023/12/09 08:29:27;;;;;;;;;;;;;;;1.51;100.00;100354.22;5006327;28;20263;-82
2023/12/09 08:31:56;;;;;;;;;;;;;;;1.44;100.00;100348.13;5002773;28;19932;-81
2023/12/09 08:34:24;;;;;;;;;;;;;;;1.51;100.00;100346.19;5005646;28;19926;-81
2023/12/09 08:36:52;;;;;;;;;;;;;;;1.51;100.00;100349.66;5000576;28;19932;-81
2023/12/09 08:39:25;;;;;;;;;;;;;;;1.52;100.00;100356.69;5017883;28;19925;-81
2023/12/09 08:41:54;;;;;;;;;;;;;;;1.52;100.00;100355.88;5001001;28;19926;-82
2023/12/09 08:44:27;;;;;;;;;;;;;;;1.52;100.00;100348.63;5004516;28;19929;-81
2023/12/09 08:47:00;;;;;;;;;;;;;;;1.59;100.00;100356.59;5002966;28;20255;-81
2023/12/09 08:49:28;;;;;;;;;;;;;;;1.62;100.00;100348.06;4999077;28;19925;-81
2023/12/09 08:52:01;;;;;;;;;;;;;;;1.64;100.00;100347.84;5002590;28;19926;-82
2023/12/09 08:54:29;;;;;;;;;;;;;;;1.60;100.00;100338.63;4997284;28;19929;-82
2023/12/09 08:56:58;;;;;;;;;;;;;;;1.63;100.00;100339.00;4999039;28;19937;-82
2023/12/09 08:59:26;;;;;;;;;;;;;;;1.67;100.00;100347.38;5000263;28;19935;-82
2023/12/09 09:01:54;;;;;;;;;;;;;;;1.65;100.00;100339.56;5005582;28;19926;-82
2023/12/09 09:04:22;;;;;;;;;;;;;;;1.64;100.00;100339.78;5003821;28;19925;-83
2023/12/09 09:06:55;;;;;;;;;;;;;;;1.68;100.00;100330.25;5000484;28;19925;-82
2023/12/09 09:09:23;;;;;;;;;;;;;;;1.67;100.00;100332.13;4997176;28;20924;-82
2023/12/09 09:11:56;;;;;;;;;;;;;;;1.73;100.00;100332.22;5002672;28;20598;-83
2023/12/09 09:14:30;;;;;;;;;;;;;;;1.77;100.00;100333.41;5002305;28;19925;-81
2023/12/09 09:17:03;;;;;;;;;;;;;;;1.75;100.00;100320.22;5003673;28;19929;-82
2023/12/09 09:19:31;;;;;;;;;;;;;;;1.76;100.00;100321.06;5004543;28;19932;-82
2023/12/09 09:22:04;;;;;;;;;;;;;;;1.77;100.00;100310.09;4998797;28;19925;-82
2023/12/09 09:24:37;;;;;;;;;;;;;;;1.80;100.00;100312.31;5002250;28;19922;-82
2023/12/09 09:27:10;;;;;;;;;;;;;;;1.80;100.00;100309.63;5005240;28;19921;-82
2023/12/09 09:29:45;;;;;;;4.97;3.20;;;;;;;1.82;100.00;100310.22;5002244;28;19925;-82
2023/12/09 09:32:18;;;;;;;5.00;3.67;;;;;;;1.87;100.00;100313.00;5004402;28;20061;-81
2023/12/09 09:34:52;;;;;;;7.05;3.67;;;;;;;1.85;100.00;100312.44;5001545;28;20054;-82
2023/12/09 09:37:20;;;;;;;6.22;3.97;;;;;;;1.95;100.00;100297.66;4999904;28;20506;-81
2023/12/09 09:39:54;;;;;;;5.75;3.85;;;;;;;1.98;100.00;100302.53;5000944;28;20053;-82
2023/12/09 09:42:35;;;;;;;6.38;3.92;;;;;;;1.93;100.00;100297.03;5015876;28;20482;-82
2023/12/09 09:45:19;;;;;;;5.68;3.78;;;;;;;1.89;100.00;100291.31;5000549;28;20052;-82
2023/12/09 09:47:49;;;;;;;4.00;3.05;;;;;;;1.98;100.00;100287.25;5005287;28;20053;-82
2023/12/09 09:50:23;;;;;;;5.20;3.78;;;;;;;2.06;100.00;100296.84;5001681;28;20050;-81
2023/12/09 09:52:58;;;;;;;4.82;3.70;;;;;;;2.01;100.00;100283.28;5002427;28;20053;-80
2023/12/09 09:55:32;;;;;;;10.60;3.95;;;;;;;2.04;100.00;100291.69;4998415;28;20054;-82
2023/12/09 09:58:05;;;;;;;12.55;3.72;;;;;;;2.03;100.00;100283.84;5000895;28;20054;-81
2023/12/09 10:00:40;;;;;;;5.63;3.67;;;;;;;2.12;100.00;100292.41;5003258;28;20058;-82
2023/12/09 10:03:08;;;;;;;4.82;3.58;;;;;;;2.06;100.00;100280.72;5002526;28;20060;-82
2023/12/09 10:05:37;;;;;;;6.07;3.95;;;;;;;2.22;100.00;100273.81;5000165;28;20547;-82
2023/12/09 10:08:06;;;;;;;10.63;4.05;;;;;;;2.17;100.00;100269.16;5002434;28;20061;-82
2023/12/09 10:10:35;;;;;;;5.90;4.22;;;;;;;2.25;100.00;100264.47;4999391;28;20058;-82
2023/12/09 10:13:03;;;;;;;6.68;4.38;;;;;;;2.24;100.00;100266.38;5000386;28;20739;-83
2023/12/09 10:15:32;;;;;;;6.90;4.45;;;;;;;2.31;100.00;100263.56;5001742;28;20392;-82
2023/12/09 10:18:04;;;;;;;8.10;4.05;;;;;;;2.36;100.00;100258.28;5002890;28;20068;-82
2023/12/09 10:20:35;;;;;;;6.22;4.22;;;;;;;2.32;100.00;100255.28;5017255;28;20134;-82
2023/12/09 10:23:08;;;;;;;7.40;4.07;;;;;;;2.37;100.00;100246.50;5003196;28;20053;-82
2023/12/09 10:25:41;;;;;;;6.13;3.85;;;;;;;2.38;100.00;100238.19;5004450;28;20042;-82
2023/12/09 10:28:10;;;;;;;6.35;3.60;;;;;;;2.43;100.00;100231.31;5001672;28;20050;-82
2023/12/09 10:30:43;;;;;;;3.80;2.92;;;;;;;2.43;100.00;100232.13;5002992;28;20042;-82
2023/12/09 10:33:18;;;;;;;7.68;4.57;;;;;;;2.46;100.00;100225.44;5009171;28;20052;-82
2023/12/09 10:35:46;;;;;;;3.95;3.15;;;;;;;2.49;100.00;100222.31;5003873;28;20049;-82
2023/12/09 10:38:20;;;;;;;6.68;3.55;;;;;;;2.47;100.00;100222.56;5004638;28;20050;-81
2023/12/09 10:40:49;;;;;;;7.70;5.10;;;;;;;2.54;100.00;100217.84;5000775;28;20046;-80
2023/12/09 10:43:18;;;;;;;5.13;3.58;;;;;;;2.54;100.00;100211.66;5017569;28;20057;-80
2023/12/09 10:45:46;;;;;;;7.80;3.72;;;;;;;2.55;100.00;100192.63;5016612;28;20054;-80
2023/12/09 10:48:21;;;;;;;6.30;4.28;;;;;;;2.63;100.00;100204.06;5001737;28;20042;-80
2023/12/09 10:50:54;;;;;;;5.68;3.85;;;;;;;2.58;100.00;100193.19;5000250;28;20073;-80
2023/12/09 10:53:27;;;;;;;5.90;3.92;;;;;;;2.66;100.00;100188.25;4996848;28;20053;-80
2023/12/09 10:55:56;;;;;;;11.30;3.92;;;;;;;2.63;100.00;100179.88;4994371;28;20045;-80
2023/12/09 10:58:25;;;;;;;5.43;3.70;;;;;;;2.59;100.00;100176.03;4991925;28;20069;-80
2023/12/09 11:00:53;;;;;;;6.80;4.50;;;;;;;2.69;100.00;100174.34;4995512;28;20056;-80
2023/12/09 11:03:29;;;;;;;8.38;4.25;;;;;;;2.62;100.00;100170.97;4994715;28;20048;-80
2023/12/09 11:06:00;;;;;;;5.32;4.00;;;;;;;2.64;100.00;100174.25;4996577;28;20045;-80
2023/12/09 11:08:36;;;;;;;4.90;3.58;;;;;;;2.60;100.00;100174.97;4993698;28;20398;-80
2023/12/09 11:11:10;;;;;;;11.57;6.90;;;;;;;2.59;100.00;100166.09;5000260;28;20448;-80
2023/12/09 11:13:44;;;;;;;14.27;7.07;;;;;;;2.77;100.00;100164.28;5002791;28;20441;-80
2023/12/09 11:16:19;;;;;;;13.05;6.97;;;;;;;2.82;100.00;100153.63;4995109;28;20457;-80
2023/12/09 11:18:56;;;;;;;16.65;7.45;;;;;;;2.83;100.00;100149.88;5001330;28;20435;-80
2023/12/09 11:21:30;;;;;;;17.38;8.00;;;;;;;2.91;100.00;100149.47;5001351;28;20452;-81
2023/12/09 11:24:00;;;;;;;19.33;8.55;;;;;;;2.82;100.00;100142.88;4995914;28;20437;-80
2023/12/09 11:26:35;;;;;;;20.65;9.05;;;;;;;2.67;100.00;100143.41;4997873;28;20434;-81
2023/12/09 11:29:12;;;;;;;19.63;9.23;;;;;;;2.64;100.00;100123.22;5003529;28;20447;-82
2023/12/09 11:31:48;;;;;;;22.27;9.93;;;;;;;2.53;100.00;100124.09;4997710;28;20428;-81
2023/12/09 11:34:23;;;;;;;22.05;9.73;;;;;;;2.50;100.00;100111.09;4996175;28;20482;-81
2023/12/09 11:36:58;;;;;;;28.90;11.13;;;;;;;2.63;100.00;100096.59;4995083;28;20459;-81
2023/12/09 11:39:28;;;;;;;25.65;10.90;;;;;;;2.60;100.00;100086.34;4999976;28;20432;-81
2023/12/09 11:42:01;;;;;;;28.63;11.30;;;;;;;2.65;100.00;100089.09;4997716;28;20455;-81
2023/12/09 11:44:36;;;;;;;25.67;10.68;;;;;;;2.67;100.00;100084.31;5001030;28;20433;-81
2023/12/09 11:47:10;;;;;;;24.95;11.48;;;;;;;2.82;100.00;100075.69;5003491;28;20438;-81
2023/12/09 11:49:46;;;;;;;25.10;10.70;;;;;;;2.85;100.00;100084.06;4996349;28;20442;-81
2023/12/09 11:52:14;;;;;;;26.07;10.80;;;;;;;2.91;100.00;100070.72;5000652;28;20428;-81
2023/12/09 11:54:47;;;;;;;25.35;10.45;;;;;;;3.00;100.00;100071.97;5015495;28;20441;-81
2023/12/09 11:57:20;;;;;;;28.07;10.83;;;;;;;2.90;100.00;100069.91;5004470;28;20432;-81
2023/12/09 11:59:54;;;;;;;29.23;11.23;;;;;;;2.99;100.00;100065.75;4997411;28;20436;-81
2023/12/09 12:02:27;;;;;;;26.25;11.25;;;;;;;3.05;100.00;100059.41;4997914;28;20443;-81
2023/12/09 12:04:57;;;;;;;26.65;10.98;;;;;;;3.11;100.00;100051.41;5011423;28;20445;-81
2023/12/09 12:07:25;;;;;;;27.23;11.00;;;;;;;3.22;100.00;100050.50;4996146;28;20429;-81
2023/12/09 12:09:53;;;;;;;25.55;11.05;;;;;;;3.19;100.00;100049.13;4977231;28;20427;-81
2023/12/09 12:12:22;;;;;;;27.47;11.57;;;;;;;3.07;100.00;100043.03;5012253;28;20433;-81
2023/12/09 12:14:56;;;;;;;32.47;13.07;;;;;;;3.03;100.00;100044.59;5012099;28;20910;-80
2023/12/09 12:17:40;;;;;;;27.45;11.73;;;;;;;2.99;100.00;100049.63;5003777;28;20459;-81
2023/12/09 12:20:15;;;;;;;25.58;10.85;;;;;;;2.93;100.00;100033.66;5002451;28;20446;-81
2023/12/09 12:22:43;;;;;;;25.42;11.30;;;;;;;3.06;100.00;100041.38;4999989;28;20430;-81
2023/12/09 12:25:17;;;;;;;31.30;11.95;;;;;;;3.03;100.00;100044.59;4996948;28;20422;-81
2023/12/09 12:27:50;;;;;;;31.38;13.48;;;;;;;3.03;100.00;100036.50;5002540;28;20424;-81
2023/12/09 12:30:24;;;;;;;25.88;11.50;;;;;;;3.01;100.00;100042.13;4994945;28;20434;-81
2023/12/09 12:32:56;;;;;;;24.08;11.10;;;;;;;2.96;100.00;100034.00;5003230;28;20432;-81